sensor_id;sensor_type;location;lat;lon;timestamp;P1;durP1;ratioP1;P2;durP2;ratioP2
54807;SDS011;40708;50.364;7.550;2023-12-20T00:01:15;1.55;;;1.45;;
54807;SDS011;40708;50.364;7.550;2023-12-20T00:03:40;1.50;;;1.40;;
54807;SDS011;40708;50.364;7.550;2023-12-20T00:06:05;1.70;;;1.57;;
54807;SDS011;40708;50.364;7.550;2023-12-20T00:08:30;1.50;;;1.40;;
54807;SDS011;40708;50.364;7.550;2023-12-20T00:10:56;1.47;;;1.30;;
54807;SDS011;40708;50.364;7.550;2023-12-20T00:13:21;2.30;;;1.50;;
54807;SDS011;40708;50.364;7.550;2023-12-20T00:15:46;1.65;;;1.55;;
54807;SDS011;40708;50.364;7.550;2023-12-20T00:18:11;1.48;;;1.38;;
54807;SDS011;40708;50.364;7.550;2023-12-20T00:20:36;1.90;;;1.50;;
54807;SDS011;40708;50.364;7.550;2023-12-20T00:23:01;1.60;;;1.30;;
54807;SDS011;40708;50.364;7.550;2023-12-20T00:25:28;2.23;;;1.47;;
54807;SDS011;40708;50.364;7.550;2023-12-20T00:27:53;1.77;;;1.63;;
54807;SDS011;40708;50.364;7.550;2023-12-20T00:30:18;1.83;;;1.53;;
54807;SDS011;40708;50.364;7.550;2023-12-20T00:32:43;2.57;;;1.70;;
54807;SDS011;40708;50.364;7.550;2023-12-20T00:35:11;1.50;;;1.40;;
54807;SDS011;40708;50.364;7.550;2023-12-20T00:37:36;1.60;;;1.50;;
54807;SDS011;40708;50.364;7.550;2023-12-20T00:40:02;1.92;;;1.73;;
54807;SDS011;40708;50.364;7.550;2023-12-20T00:42:27;1.80;;;1.70;;
54807;SDS011;40708;50.364;7.550;2023-12-20T00:44:52;1.20;;;1.10;;
54807;SDS011;40708;50.364;7.550;2023-12-20T00:47:17;1.90;;;1.53;;
54807;SDS011;40708;50.364;7.550;2023-12-20T00:49:43;1.60;;;1.50;;
54807;SDS011;40708;50.364;7.550;2023-12-20T00:52:08;1.47;;;1.37;;
54807;SDS011;40708;50.364;7.550;2023-12-20T00:54:33;1.87;;;1.40;;
54807;SDS011;40708;50.364;7.550;2023-12-20T00:56:59;1.70;;;1.60;;
54807;SDS011;40708;50.364;7.550;2023-12-20T00:59:24;1.97;;;1.70;;
54807;SDS011;40708;50.364;7.550;2023-12-20T01:01:49;1.85;;;1.60;;
54807;SDS011;40708;50.364;7.550;2023-12-20T01:04:15;1.63;;;1.53;;
54807;SDS011;40708;50.364;7.550;2023-12-20T01:06:40;1.60;;;1.50;;
54807;SDS011;40708;50.364;7.550;2023-12-20T01:09:05;1.48;;;1.38;;
54807;SDS011;40708;50.364;7.550;2023-12-20T01:11:30;2.83;;;1.80;;
54807;SDS011;40708;50.364;7.550;2023-12-20T01:13:55;1.60;;;1.40;;
54807;SDS011;40708;50.364;7.550;2023-12-20T01:16:20;1.55;;;1.30;;
54807;SDS011;40708;50.364;7.550;2023-12-20T01:18:45;1.70;;;1.60;;
54807;SDS011;40708;50.364;7.550;2023-12-20T01:21:11;2.00;;;1.80;;
54807;SDS011;40708;50.364;7.550;2023-12-20T01:23:36;1.70;;;1.50;;
54807;SDS011;40708;50.364;7.550;2023-12-20T01:26:01;1.90;;;1.65;;
54807;SDS011;40708;50.364;7.550;2023-12-20T01:28:27;2.07;;;1.50;;
54807;SDS011;40708;50.364;7.550;2023-12-20T01:30:52;1.77;;;1.50;;
54807;SDS011;40708;50.364;7.550;2023-12-20T01:33:17;1.58;;;1.40;;
54807;SDS011;40708;50.364;7.550;2023-12-20T01:35:43;1.77;;;1.40;;
54807;SDS011;40708;50.364;7.550;2023-12-20T01:38:08;1.40;;;1.30;;
54807;SDS011;40708;50.364;7.550;2023-12-20T01:40:34;1.90;;;1.70;;
54807;SDS011;40708;50.364;7.550;2023-12-20T01:43:05;1.40;;;1.30;;
54807;SDS011;40708;50.364;7.550;2023-12-20T01:45:31;2.27;;;1.30;;
54807;SDS011;40708;50.364;7.550;2023-12-20T01:47:56;1.60;;;1.50;;
54807;SDS011;40708;50.364;7.550;2023-12-20T01:50:22;2.03;;;1.70;;
54807;SDS011;40708;50.364;7.550;2023-12-20T01:52:47;1.60;;;1.50;;
54807;SDS011;40708;50.364;7.550;2023-12-20T01:55:13;2.00;;;1.80;;
54807;SDS011;40708;50.364;7.550;2023-12-20T01:57:43;1.47;;;1.30;;
54807;SDS011;40708;50.364;7.550;2023-12-20T02:00:09;2.10;;;1.80;;
54807;SDS011;40708;50.364;7.550;2023-12-20T02:02:35;1.67;;;1.37;;
54807;SDS011;40708;50.364;7.550;2023-12-20T02:05:01;2.43;;;1.53;;
54807;SDS011;40708;50.364;7.550;2023-12-20T02:07:28;2.10;;;1.70;;
54807;SDS011;40708;50.364;7.550;2023-12-20T02:09:54;1.60;;;1.50;;
54807;SDS011;40708;50.364;7.550;2023-12-20T02:12:19;1.40;;;1.30;;
54807;SDS011;40708;50.364;7.550;2023-12-20T02:14:44;1.80;;;1.70;;
54807;SDS011;40708;50.364;7.550;2023-12-20T02:17:10;2.28;;;1.88;;
54807;SDS011;40708;50.364;7.550;2023-12-20T02:19:35;2.00;;;1.80;;
54807;SDS011;40708;50.364;7.550;2023-12-20T02:22:12;1.73;;;1.63;;
54807;SDS011;40708;50.364;7.550;2023-12-20T02:24:37;2.03;;;1.80;;
54807;SDS011;40708;50.364;7.550;2023-12-20T02:27:03;2.67;;;1.90;;
54807;SDS011;40708;50.364;7.550;2023-12-20T02:29:28;1.50;;;1.40;;
54807;SDS011;40708;50.364;7.550;2023-12-20T02:31:53;2.53;;;1.60;;
54807;SDS011;40708;50.364;7.550;2023-12-20T02:34:18;2.00;;;1.80;;
54807;SDS011;40708;50.364;7.550;2023-12-20T02:36:43;1.90;;;1.77;;
54807;SDS011;40708;50.364;7.550;2023-12-20T02:39:08;2.42;;;2.10;;
54807;SDS011;40708;50.364;7.550;2023-12-20T02:41:34;3.73;;;2.07;;
54807;SDS011;40708;50.364;7.550;2023-12-20T02:43:59;1.60;;;1.40;;
54807;SDS011;40708;50.364;7.550;2023-12-20T02:46:24;1.53;;;1.43;;
54807;SDS011;40708;50.364;7.550;2023-12-20T02:48:49;2.30;;;1.70;;
54807;SDS011;40708;50.364;7.550;2023-12-20T02:51:14;1.50;;;1.40;;
54807;SDS011;40708;50.364;7.550;2023-12-20T02:53:39;2.88;;;1.70;;
54807;SDS011;40708;50.364;7.550;2023-12-20T02:56:05;4.40;;;1.80;;
54807;SDS011;40708;50.364;7.550;2023-12-20T02:58:30;2.10;;;1.90;;
54807;SDS011;40708;50.364;7.550;2023-12-20T03:00:55;1.88;;;1.63;;
54807;SDS011;40708;50.364;7.550;2023-12-20T03:03:20;2.90;;;2.13;;
54807;SDS011;40708;50.364;7.550;2023-12-20T03:05:45;2.35;;;1.98;;
54807;SDS011;40708;50.364;7.550;2023-12-20T03:08:11;1.80;;;1.60;;
54807;SDS011;40708;50.364;7.550;2023-12-20T03:10:36;6.10;;;2.00;;
54807;SDS011;40708;50.364;7.550;2023-12-20T03:13:01;2.10;;;1.80;;
54807;SDS011;40708;50.364;7.550;2023-12-20T03:15:27;2.70;;;2.40;;
54807;SDS011;40708;50.364;7.550;2023-12-20T03:17:52;3.40;;;3.10;;
54807;SDS011;40708;50.364;7.550;2023-12-20T03:20:17;6.80;;;3.33;;
54807;SDS011;40708;50.364;7.550;2023-12-20T03:22:42;3.78;;;3.20;;
54807;SDS011;40708;50.364;7.550;2023-12-20T03:25:07;5.38;;;3.28;;
54807;SDS011;40708;50.364;7.550;2023-12-20T03:27:32;4.00;;;2.47;;
54807;SDS011;40708;50.364;7.550;2023-12-20T03:29:58;3.83;;;2.37;;
54807;SDS011;40708;50.364;7.550;2023-12-20T03:32:23;5.15;;;2.17;;
54807;SDS011;40708;50.364;7.550;2023-12-20T03:34:48;5.75;;;2.17;;
54807;SDS011;40708;50.364;7.550;2023-12-20T03:37:13;3.40;;;1.83;;
54807;SDS011;40708;50.364;7.550;2023-12-20T03:39:38;4.70;;;1.93;;
54807;SDS011;40708;50.364;7.550;2023-12-20T03:42:03;6.03;;;2.03;;
54807;SDS011;40708;50.364;7.550;2023-12-20T03:44:29;4.37;;;1.97;;
54807;SDS011;40708;50.364;7.550;2023-12-20T03:46:54;5.82;;;1.98;;
54807;SDS011;40708;50.364;7.550;2023-12-20T03:49:19;5.67;;;2.00;;
54807;SDS011;40708;50.364;7.550;2023-12-20T03:51:44;4.37;;;1.70;;
54807;SDS011;40708;50.364;7.550;2023-12-20T03:54:09;3.28;;;1.73;;
54807;SDS011;40708;50.364;7.550;2023-12-20T03:56:34;7.20;;;2.03;;
54807;SDS011;40708;50.364;7.550;2023-12-20T03:59:00;6.50;;;1.92;;
54807;SDS011;40708;50.364;7.550;2023-12-20T04:01:25;5.23;;;1.73;;
54807;SDS011;40708;50.364;7.550;2023-12-20T04:03:50;4.60;;;1.80;;
54807;SDS011;40708;50.364;7.550;2023-12-20T04:06:16;5.80;;;1.37;;
54807;SDS011;40708;50.364;7.550;2023-12-20T04:08:41;4.57;;;1.33;;
54807;SDS011;40708;50.364;7.550;2023-12-20T04:11:06;3.65;;;1.92;;
54807;SDS011;40708;50.364;7.550;2023-12-20T04:13:32;6.37;;;2.30;;
54807;SDS011;40708;50.364;7.550;2023-12-20T04:15:57;4.17;;;2.13;;
54807;SDS011;40708;50.364;7.550;2023-12-20T04:18:22;8.77;;;2.20;;
54807;SDS011;40708;50.364;7.550;2023-12-20T04:20:47;3.67;;;1.50;;
54807;SDS011;40708;50.364;7.550;2023-12-20T04:23:12;5.40;;;1.93;;
54807;SDS011;40708;50.364;7.550;2023-12-20T04:25:38;4.50;;;1.70;;
54807;SDS011;40708;50.364;7.550;2023-12-20T04:28:03;4.00;;;1.87;;
54807;SDS011;40708;50.364;7.550;2023-12-20T04:30:28;7.17;;;1.77;;
54807;SDS011;40708;50.364;7.550;2023-12-20T04:32:53;4.60;;;2.00;;
54807;SDS011;40708;50.364;7.550;2023-12-20T04:35:18;6.90;;;2.50;;
54807;SDS011;40708;50.364;7.550;2023-12-20T04:37:43;4.93;;;1.70;;
54807;SDS011;40708;50.364;7.550;2023-12-20T04:40:09;7.50;;;2.23;;
54807;SDS011;40708;50.364;7.550;2023-12-20T04:42:34;5.10;;;2.00;;
54807;SDS011;40708;50.364;7.550;2023-12-20T04:44:59;6.57;;;2.03;;
54807;SDS011;40708;50.364;7.550;2023-12-20T04:47:24;7.23;;;2.83;;
54807;SDS011;40708;50.364;7.550;2023-12-20T04:49:49;4.27;;;1.90;;
54807;SDS011;40708;50.364;7.550;2023-12-20T04:52:15;6.30;;;2.00;;
54807;SDS011;40708;50.364;7.550;2023-12-20T04:54:40;7.30;;;2.23;;
54807;SDS011;40708;50.364;7.550;2023-12-20T04:57:05;4.37;;;2.40;;
54807;SDS011;40708;50.364;7.550;2023-12-20T04:59:30;6.83;;;2.23;;
54807;SDS011;40708;50.364;7.550;2023-12-20T05:01:55;3.95;;;2.28;;
54807;SDS011;40708;50.364;7.550;2023-12-20T05:04:20;9.70;;;2.50;;
54807;SDS011;40708;50.364;7.550;2023-12-20T05:06:46;4.63;;;1.90;;
54807;SDS011;40708;50.364;7.550;2023-12-20T05:09:11;4.38;;;1.83;;
54807;SDS011;40708;50.364;7.550;2023-12-20T05:11:36;8.30;;;2.33;;
54807;SDS011;40708;50.364;7.550;2023-12-20T05:14:01;6.43;;;2.15;;
54807;SDS011;40708;50.364;7.550;2023-12-20T05:16:26;8.57;;;2.63;;
54807;SDS011;40708;50.364;7.550;2023-12-20T05:18:51;6.33;;;2.60;;
54807;SDS011;40708;50.364;7.550;2023-12-20T05:21:17;6.13;;;2.17;;
54807;SDS011;40708;50.364;7.550;2023-12-20T05:23:42;9.40;;;2.27;;
54807;SDS011;40708;50.364;7.550;2023-12-20T05:26:08;4.57;;;2.17;;
54807;SDS011;40708;50.364;7.550;2023-12-20T05:28:33;5.50;;;2.43;;
54807;SDS011;40708;50.364;7.550;2023-12-20T05:30:58;8.60;;;1.93;;
54807;SDS011;40708;50.364;7.550;2023-12-20T05:33:23;6.70;;;2.47;;
54807;SDS011;40708;50.364;7.550;2023-12-20T05:35:49;4.37;;;2.20;;
54807;SDS011;40708;50.364;7.550;2023-12-20T05:38:14;6.03;;;2.38;;
54807;SDS011;40708;50.364;7.550;2023-12-20T05:40:39;7.47;;;2.17;;
54807;SDS011;40708;50.364;7.550;2023-12-20T05:43:04;5.47;;;2.07;;
54807;SDS011;40708;50.364;7.550;2023-12-20T05:45:30;6.10;;;1.93;;
54807;SDS011;40708;50.364;7.550;2023-12-20T05:47:55;5.23;;;2.00;;
54807;SDS011;40708;50.364;7.550;2023-12-20T05:50:20;4.95;;;1.95;;
54807;SDS011;40708;50.364;7.550;2023-12-20T05:52:46;4.60;;;2.27;;
54807;SDS011;40708;50.364;7.550;2023-12-20T05:55:11;3.93;;;1.97;;
54807;SDS011;40708;50.364;7.550;2023-12-20T05:57:36;5.10;;;2.30;;
54807;SDS011;40708;50.364;7.550;2023-12-20T06:00:02;5.18;;;2.10;;
54807;SDS011;40708;50.364;7.550;2023-12-20T06:02:28;6.67;;;2.20;;
54807;SDS011;40708;50.364;7.550;2023-12-20T06:04:53;6.30;;;1.80;;
54807;SDS011;40708;50.364;7.550;2023-12-20T06:07:18;5.30;;;1.70;;
54807;SDS011;40708;50.364;7.550;2023-12-20T06:09:44;8.20;;;2.10;;
54807;SDS011;40708;50.364;7.550;2023-12-20T06:12:09;5.83;;;2.07;;
54807;SDS011;40708;50.364;7.550;2023-12-20T06:14:35;4.70;;;2.33;;
54807;SDS011;40708;50.364;7.550;2023-12-20T06:17:00;3.97;;;1.60;;
54807;SDS011;40708;50.364;7.550;2023-12-20T06:19:26;8.67;;;2.00;;
54807;SDS011;40708;50.364;7.550;2023-12-20T06:21:51;5.30;;;2.13;;
54807;SDS011;40708;50.364;7.550;2023-12-20T06:24:16;5.97;;;2.10;;
54807;SDS011;40708;50.364;7.550;2023-12-20T06:26:41;5.77;;;2.03;;
54807;SDS011;40708;50.364;7.550;2023-12-20T06:29:06;5.38;;;2.00;;
54807;SDS011;40708;50.364;7.550;2023-12-20T06:31:32;8.57;;;2.10;;
54807;SDS011;40708;50.364;7.550;2023-12-20T06:33:58;3.37;;;1.73;;
54807;SDS011;40708;50.364;7.550;2023-12-20T06:36:24;9.33;;;2.97;;
54807;SDS011;40708;50.364;7.550;2023-12-20T06:38:50;5.90;;;1.83;;
54807;SDS011;40708;50.364;7.550;2023-12-20T06:41:15;6.10;;;2.13;;
54807;SDS011;40708;50.364;7.550;2023-12-20T06:43:40;6.20;;;2.10;;
54807;SDS011;40708;50.364;7.550;2023-12-20T06:46:05;5.93;;;2.10;;
54807;SDS011;40708;50.364;7.550;2023-12-20T06:48:31;4.40;;;2.13;;
54807;SDS011;40708;50.364;7.550;2023-12-20T06:50:56;3.43;;;1.70;;
54807;SDS011;40708;50.364;7.550;2023-12-20T06:53:21;6.17;;;3.20;;
54807;SDS011;40708;50.364;7.550;2023-12-20T06:55:46;7.82;;;2.00;;
54807;SDS011;40708;50.364;7.550;2023-12-20T06:58:12;4.23;;;1.90;;
54807;SDS011;40708;50.364;7.550;2023-12-20T07:00:37;7.03;;;2.23;;
54807;SDS011;40708;50.364;7.550;2023-12-20T07:03:03;6.27;;;2.60;;
54807;SDS011;40708;50.364;7.550;2023-12-20T07:05:28;7.63;;;2.43;;
54807;SDS011;40708;50.364;7.550;2023-12-20T07:07:53;5.43;;;2.00;;
54807;SDS011;40708;50.364;7.550;2023-12-20T07:10:19;6.50;;;2.60;;
54807;SDS011;40708;50.364;7.550;2023-12-20T07:12:44;8.40;;;2.63;;
54807;SDS011;40708;50.364;7.550;2023-12-20T07:15:09;6.00;;;2.10;;
54807;SDS011;40708;50.364;7.550;2023-12-20T07:17:34;6.63;;;2.33;;
54807;SDS011;40708;50.364;7.550;2023-12-20T07:20:00;10.00;;;2.73;;
54807;SDS011;40708;50.364;7.550;2023-12-20T07:22:28;6.37;;;2.30;;
54807;SDS011;40708;50.364;7.550;2023-12-20T07:24:54;5.30;;;2.03;;
54807;SDS011;40708;50.364;7.550;2023-12-20T07:27:19;7.57;;;2.50;;
54807;SDS011;40708;50.364;7.550;2023-12-20T07:29:45;9.27;;;2.00;;
54807;SDS011;40708;50.364;7.550;2023-12-20T07:32:10;10.80;;;3.58;;
54807;SDS011;40708;50.364;7.550;2023-12-20T07:34:35;10.05;;;1.95;;
54807;SDS011;40708;50.364;7.550;2023-12-20T07:37:00;9.43;;;2.85;;
54807;SDS011;40708;50.364;7.550;2023-12-20T07:39:25;3.63;;;2.07;;
54807;SDS011;40708;50.364;7.550;2023-12-20T07:41:50;6.43;;;2.43;;
54807;SDS011;40708;50.364;7.550;2023-12-20T07:44:16;5.30;;;2.47;;
54807;SDS011;40708;50.364;7.550;2023-12-20T07:46:41;6.77;;;2.03;;
54807;SDS011;40708;50.364;7.550;2023-12-20T07:49:06;8.53;;;2.10;;
54807;SDS011;40708;50.364;7.550;2023-12-20T07:51:33;7.20;;;2.30;;
54807;SDS011;40708;50.364;7.550;2023-12-20T07:53:58;7.47;;;2.90;;
54807;SDS011;40708;50.364;7.550;2023-12-20T07:56:23;10.00;;;2.55;;
54807;SDS011;40708;50.364;7.550;2023-12-20T07:58:49;5.03;;;2.23;;
54807;SDS011;40708;50.364;7.550;2023-12-20T08:01:15;6.47;;;2.63;;
54807;SDS011;40708;50.364;7.550;2023-12-20T08:03:40;5.57;;;2.30;;
54807;SDS011;40708;50.364;7.550;2023-12-20T08:06:06;5.20;;;2.67;;
54807;SDS011;40708;50.364;7.550;2023-12-20T08:08:31;5.53;;;2.33;;
54807;SDS011;40708;50.364;7.550;2023-12-20T08:10:56;6.15;;;2.53;;
54807;SDS011;40708;50.364;7.550;2023-12-20T08:13:24;4.23;;;2.37;;
54807;SDS011;40708;50.364;7.550;2023-12-20T08:15:51;7.93;;;2.20;;
54807;SDS011;40708;50.364;7.550;2023-12-20T08:18:16;7.67;;;2.60;;
54807;SDS011;40708;50.364;7.550;2023-12-20T08:20:41;9.40;;;2.80;;
54807;SDS011;40708;50.364;7.550;2023-12-20T08:23:06;6.10;;;2.50;;
54807;SDS011;40708;50.364;7.550;2023-12-20T08:25:31;6.22;;;2.75;;
54807;SDS011;40708;50.364;7.550;2023-12-20T08:27:56;9.43;;;2.67;;
54807;SDS011;40708;50.364;7.550;2023-12-20T08:30:21;13.35;;;3.58;;
54807;SDS011;40708;50.364;7.550;2023-12-20T08:32:50;7.57;;;2.57;;
54807;SDS011;40708;50.364;7.550;2023-12-20T08:35:15;6.03;;;2.60;;
54807;SDS011;40708;50.364;7.550;2023-12-20T08:37:40;7.17;;;2.40;;
54807;SDS011;40708;50.364;7.550;2023-12-20T08:40:06;6.73;;;3.33;;
54807;SDS011;40708;50.364;7.550;2023-12-20T08:42:31;6.97;;;2.93;;
54807;SDS011;40708;50.364;7.550;2023-12-20T08:44:59;7.13;;;2.73;;
54807;SDS011;40708;50.364;7.550;2023-12-20T08:47:24;6.23;;;2.90;;
54807;SDS011;40708;50.364;7.550;2023-12-20T08:49:49;6.73;;;3.27;;
54807;SDS011;40708;50.364;7.550;2023-12-20T08:52:15;7.90;;;3.00;;
54807;SDS011;40708;50.364;7.550;2023-12-20T08:54:40;8.90;;;4.00;;
54807;SDS011;40708;50.364;7.550;2023-12-20T08:57:05;7.82;;;2.70;;
54807;SDS011;40708;50.364;7.550;2023-12-20T08:59:31;10.43;;;3.17;;
54807;SDS011;40708;50.364;7.550;2023-12-20T09:01:57;6.07;;;2.33;;
54807;SDS011;40708;50.364;7.550;2023-12-20T09:04:22;6.83;;;2.93;;
54807;SDS011;40708;50.364;7.550;2023-12-20T09:06:47;8.20;;;3.40;;
54807;SDS011;40708;50.364;7.550;2023-12-20T09:09:12;6.47;;;2.50;;
54807;SDS011;40708;50.364;7.550;2023-12-20T09:11:40;8.47;;;2.67;;
54807;SDS011;40708;50.364;7.550;2023-12-20T09:14:05;7.23;;;2.67;;
54807;SDS011;40708;50.364;7.550;2023-12-20T09:16:31;6.55;;;2.47;;
54807;SDS011;40708;50.364;7.550;2023-12-20T09:18:56;6.03;;;3.00;;
54807;SDS011;40708;50.364;7.550;2023-12-20T09:21:21;6.33;;;2.97;;
54807;SDS011;40708;50.364;7.550;2023-12-20T09:23:47;7.33;;;3.20;;
54807;SDS011;40708;50.364;7.550;2023-12-20T09:26:12;8.67;;;3.60;;
54807;SDS011;40708;50.364;7.550;2023-12-20T09:28:37;9.60;;;3.40;;
54807;SDS011;40708;50.364;7.550;2023-12-20T09:31:04;8.27;;;3.40;;
54807;SDS011;40708;50.364;7.550;2023-12-20T09:33:29;8.90;;;2.90;;
54807;SDS011;40708;50.364;7.550;2023-12-20T09:35:54;8.25;;;2.95;;
54807;SDS011;40708;50.364;7.550;2023-12-20T09:38:19;9.07;;;3.37;;
54807;SDS011;40708;50.364;7.550;2023-12-20T09:40:45;7.20;;;3.17;;
54807;SDS011;40708;50.364;7.550;2023-12-20T09:43:11;8.13;;;2.83;;
54807;SDS011;40708;50.364;7.550;2023-12-20T09:45:37;11.47;;;3.83;;
54807;SDS011;40708;50.364;7.550;2023-12-20T09:48:03;8.77;;;3.10;;
54807;SDS011;40708;50.364;7.550;2023-12-20T09:50:30;10.07;;;3.80;;
54807;SDS011;40708;50.364;7.550;2023-12-20T09:52:57;9.33;;;3.73;;
54807;SDS011;40708;50.364;7.550;2023-12-20T09:55:24;6.20;;;3.30;;
54807;SDS011;40708;50.364;7.550;2023-12-20T09:57:49;7.73;;;2.77;;
54807;SDS011;40708;50.364;7.550;2023-12-20T10:00:15;12.80;;;3.20;;
54807;SDS011;40708;50.364;7.550;2023-12-20T10:03:01;9.97;;;3.43;;
54807;SDS011;40708;50.364;7.550;2023-12-20T10:05:29;7.10;;;2.70;;
54807;SDS011;40708;50.364;7.550;2023-12-20T10:07:55;7.80;;;2.70;;
54807;SDS011;40708;50.364;7.550;2023-12-20T10:10:20;6.15;;;2.38;;
54807;SDS011;40708;50.364;7.550;2023-12-20T10:15:29;9.43;;;2.50;;
54807;SDS011;40708;50.364;7.550;2023-12-20T10:17:54;7.47;;;2.40;;
54807;SDS011;40708;50.364;7.550;2023-12-20T10:20:20;6.60;;;2.33;;
54807;SDS011;40708;50.364;7.550;2023-12-20T10:22:45;3.80;;;2.30;;
54807;SDS011;40708;50.364;7.550;2023-12-20T10:25:11;7.60;;;2.27;;
54807;SDS011;40708;50.364;7.550;2023-12-20T10:27:36;7.43;;;2.50;;
54807;SDS011;40708;50.364;7.550;2023-12-20T10:30:02;7.63;;;2.93;;
54807;SDS011;40708;50.364;7.550;2023-12-20T10:32:27;7.23;;;2.40;;
54807;SDS011;40708;50.364;7.550;2023-12-20T10:34:53;8.30;;;2.60;;
54807;SDS011;40708;50.364;7.550;2023-12-20T10:37:18;9.63;;;2.70;;
54807;SDS011;40708;50.364;7.550;2023-12-20T10:39:43;5.97;;;2.50;;
54807;SDS011;40708;50.364;7.550;2023-12-20T10:42:12;8.03;;;3.10;;
54807;SDS011;40708;50.364;7.550;2023-12-20T10:44:37;6.63;;;2.77;;
54807;SDS011;40708;50.364;7.550;2023-12-20T10:47:03;5.43;;;2.50;;
54807;SDS011;40708;50.364;7.550;2023-12-20T10:49:29;6.87;;;2.60;;
54807;SDS011;40708;50.364;7.550;2023-12-20T10:51:54;7.23;;;2.57;;
54807;SDS011;40708;50.364;7.550;2023-12-20T10:54:22;7.23;;;2.87;;
54807;SDS011;40708;50.364;7.550;2023-12-20T10:56:47;7.43;;;2.73;;
54807;SDS011;40708;50.364;7.550;2023-12-20T10:59:14;8.43;;;2.80;;
54807;SDS011;40708;50.364;7.550;2023-12-20T11:01:40;7.30;;;2.63;;
54807;SDS011;40708;50.364;7.550;2023-12-20T11:04:07;7.50;;;2.30;;
54807;SDS011;40708;50.364;7.550;2023-12-20T11:06:36;6.33;;;2.47;;
54807;SDS011;40708;50.364;7.550;2023-12-20T11:09:24;9.87;;;2.50;;
54807;SDS011;40708;50.364;7.550;2023-12-20T11:12:01;5.90;;;2.63;;
54807;SDS011;40708;50.364;7.550;2023-12-20T11:14:41;6.77;;;2.73;;
54807;SDS011;40708;50.364;7.550;2023-12-20T11:17:10;6.73;;;2.63;;
54807;SDS011;40708;50.364;7.550;2023-12-20T11:20:12;6.77;;;2.10;;
54807;SDS011;40708;50.364;7.550;2023-12-20T11:22:31;6.67;;;2.43;;
54807;SDS011;40708;50.364;7.550;2023-12-20T11:25:03;5.73;;;2.37;;
54807;SDS011;40708;50.364;7.550;2023-12-20T11:27:28;5.80;;;2.47;;
54807;SDS011;40708;50.364;7.550;2023-12-20T11:29:56;8.80;;;2.20;;
54807;SDS011;40708;50.364;7.550;2023-12-20T11:34:53;5.07;;;2.13;;
54807;SDS011;40708;50.364;7.550;2023-12-20T11:37:19;5.47;;;2.50;;
54807;SDS011;40708;50.364;7.550;2023-12-20T11:39:44;5.93;;;2.20;;
54807;SDS011;40708;50.364;7.550;2023-12-20T11:42:09;4.83;;;2.40;;
54807;SDS011;40708;50.364;7.550;2023-12-20T11:44:35;6.50;;;2.77;;
54807;SDS011;40708;50.364;7.550;2023-12-20T11:47:01;7.03;;;2.50;;
54807;SDS011;40708;50.364;7.550;2023-12-20T11:49:26;6.47;;;2.43;;
54807;SDS011;40708;50.364;7.550;2023-12-20T11:51:54;6.87;;;2.20;;
54807;SDS011;40708;50.364;7.550;2023-12-20T11:54:19;6.70;;;2.63;;
54807;SDS011;40708;50.364;7.550;2023-12-20T11:56:44;7.37;;;2.63;;
54807;SDS011;40708;50.364;7.550;2023-12-20T11:59:09;6.87;;;2.50;;
54807;SDS011;40708;50.364;7.550;2023-12-20T12:01:36;9.40;;;3.03;;
54807;SDS011;40708;50.364;7.550;2023-12-20T12:04:04;4.53;;;2.33;;
54807;SDS011;40708;50.364;7.550;2023-12-20T12:06:30;5.23;;;2.20;;
54807;SDS011;40708;50.364;7.550;2023-12-20T12:08:55;6.60;;;2.93;;
54807;SDS011;40708;50.364;7.550;2023-12-20T12:11:20;7.87;;;2.63;;
54807;SDS011;40708;50.364;7.550;2023-12-20T12:13:45;8.37;;;2.93;;
54807;SDS011;40708;50.364;7.550;2023-12-20T12:16:11;6.23;;;2.63;;
54807;SDS011;40708;50.364;7.550;2023-12-20T12:18:36;4.70;;;2.37;;
54807;SDS011;40708;50.364;7.550;2023-12-20T12:21:01;9.97;;;3.87;;
54807;SDS011;40708;50.364;7.550;2023-12-20T12:23:27;7.13;;;2.40;;
54807;SDS011;40708;50.364;7.550;2023-12-20T12:25:52;8.87;;;2.33;;
54807;SDS011;40708;50.364;7.550;2023-12-20T12:28:20;6.27;;;2.80;;
54807;SDS011;40708;50.364;7.550;2023-12-20T12:30:57;7.93;;;2.93;;
54807;SDS011;40708;50.364;7.550;2023-12-20T12:33:24;6.67;;;2.80;;
54807;SDS011;40708;50.364;7.550;2023-12-20T12:35:49;4.97;;;2.30;;
54807;SDS011;40708;50.364;7.550;2023-12-20T12:38:14;5.80;;;2.77;;
54807;SDS011;40708;50.364;7.550;2023-12-20T12:40:40;5.90;;;2.63;;
54807;SDS011;40708;50.364;7.550;2023-12-20T12:43:08;8.33;;;3.00;;
54807;SDS011;40708;50.364;7.550;2023-12-20T12:45:33;8.40;;;2.67;;
54807;SDS011;40708;50.364;7.550;2023-12-20T12:47:58;7.57;;;2.80;;
54807;SDS011;40708;50.364;7.550;2023-12-20T12:50:23;3.93;;;2.57;;
54807;SDS011;40708;50.364;7.550;2023-12-20T12:52:48;6.60;;;2.70;;
54807;SDS011;40708;50.364;7.550;2023-12-20T12:55:14;11.50;;;3.40;;
54807;SDS011;40708;50.364;7.550;2023-12-20T12:57:39;8.85;;;2.95;;
54807;SDS011;40708;50.364;7.550;2023-12-20T13:00:04;7.00;;;2.60;;
54807;SDS011;40708;50.364;7.550;2023-12-20T13:02:33;7.77;;;2.97;;
54807;SDS011;40708;50.364;7.550;2023-12-20T13:04:58;10.20;;;2.83;;
54807;SDS011;40708;50.364;7.550;2023-12-20T13:07:24;8.77;;;2.90;;
54807;SDS011;40708;50.364;7.550;2023-12-20T13:09:49;8.40;;;2.60;;
54807;SDS011;40708;50.364;7.550;2023-12-20T13:12:14;5.10;;;2.57;;
54807;SDS011;40708;50.364;7.550;2023-12-20T13:14:39;7.40;;;2.80;;
54807;SDS011;40708;50.364;7.550;2023-12-20T13:17:05;10.60;;;3.23;;
54807;SDS011;40708;50.364;7.550;2023-12-20T13:19:31;7.10;;;2.87;;
54807;SDS011;40708;50.364;7.550;2023-12-20T13:21:56;5.00;;;2.50;;
54807;SDS011;40708;50.364;7.550;2023-12-20T13:24:21;6.53;;;2.50;;
54807;SDS011;40708;50.364;7.550;2023-12-20T13:26:46;6.00;;;2.60;;
54807;SDS011;40708;50.364;7.550;2023-12-20T13:29:12;6.03;;;2.93;;
54807;SDS011;40708;50.364;7.550;2023-12-20T13:31:37;10.20;;;2.63;;
54807;SDS011;40708;50.364;7.550;2023-12-20T13:34:02;7.07;;;2.70;;
54807;SDS011;40708;50.364;7.550;2023-12-20T13:36:27;5.40;;;2.53;;
54807;SDS011;40708;50.364;7.550;2023-12-20T13:38:52;5.77;;;2.40;;
54807;SDS011;40708;50.364;7.550;2023-12-20T13:41:18;7.77;;;2.60;;
54807;SDS011;40708;50.364;7.550;2023-12-20T13:43:43;4.23;;;2.13;;
54807;SDS011;40708;50.364;7.550;2023-12-20T13:46:08;7.37;;;2.60;;
54807;SDS011;40708;50.364;7.550;2023-12-20T13:48:34;9.67;;;2.73;;
54807;SDS011;40708;50.364;7.550;2023-12-20T13:50:59;7.43;;;2.97;;
54807;SDS011;40708;50.364;7.550;2023-12-20T13:53:25;5.43;;;2.43;;
54807;SDS011;40708;50.364;7.550;2023-12-20T13:55:50;4.85;;;2.63;;
54807;SDS011;40708;50.364;7.550;2023-12-20T13:58:15;12.40;;;3.27;;
54807;SDS011;40708;50.364;7.550;2023-12-20T14:00:40;10.37;;;3.80;;
54807;SDS011;40708;50.364;7.550;2023-12-20T14:03:05;8.80;;;3.23;;
54807;SDS011;40708;50.364;7.550;2023-12-20T14:05:30;8.27;;;2.80;;
54807;SDS011;40708;50.364;7.550;2023-12-20T14:07:56;6.27;;;2.90;;
54807;SDS011;40708;50.364;7.550;2023-12-20T14:10:25;7.23;;;3.10;;
54807;SDS011;40708;50.364;7.550;2023-12-20T14:12:51;9.07;;;3.07;;
54807;SDS011;40708;50.364;7.550;2023-12-20T14:15:16;8.83;;;3.40;;
54807;SDS011;40708;50.364;7.550;2023-12-20T14:17:42;7.50;;;2.67;;
54807;SDS011;40708;50.364;7.550;2023-12-20T14:20:07;8.20;;;3.03;;
54807;SDS011;40708;50.364;7.550;2023-12-20T14:22:33;11.60;;;3.20;;
54807;SDS011;40708;50.364;7.550;2023-12-20T14:24:58;12.43;;;3.20;;
54807;SDS011;40708;50.364;7.550;2023-12-20T14:27:23;8.77;;;2.87;;
54807;SDS011;40708;50.364;7.550;2023-12-20T14:29:52;8.50;;;3.10;;
54807;SDS011;40708;50.364;7.550;2023-12-20T14:32:17;6.07;;;2.57;;
54807;SDS011;40708;50.364;7.550;2023-12-20T14:34:43;8.73;;;2.80;;
54807;SDS011;40708;50.364;7.550;2023-12-20T14:37:08;13.02;;;3.40;;
54807;SDS011;40708;50.364;7.550;2023-12-20T14:39:33;9.95;;;2.75;;
54807;SDS011;40708;50.364;7.550;2023-12-20T14:41:58;8.50;;;2.80;;
54807;SDS011;40708;50.364;7.550;2023-12-20T14:44:23;6.43;;;2.83;;